Wetterdaten: Woche 02.07.18 - 08.07.18 (KW27)
Datum Zeit Temp. Aussen Temp. o. S. +5cm Feuchte Auss Luftdruck Regen Sonnenschein Regendauer Solar Windben Empfang
02.07.2018 00:00 16,0 C 12,8 C 13,2 C 64 % 1013,8 hPa 0,0 l/m 0,00 h 0,00 h 0 W/m 1,3 km/h (1 Bft) 97,26 %
02.07.2018 01:00 14,9 C 13,7 C 13,9 C 64 % 1013,9 hPa 0,0 l/m 0,00 h 0,00 h 0 W/m 0,8 km/h (0 Bft) 99,59 %
02.07.2018 02:00 14,5 C 13,5 C 14,0 C 64 % 1013,6 hPa 0,0 l/m 0,00 h 0,00 h 0 W/m 2,8 km/h (1 Bft) 95,14 %
02.07.2018 03:00 14,1 C 12,9 C 13,1 C 65 % 1013,5 hPa 0,0 l/m 0,00 h 0,00 h 0 W/m 2,1 km/h (1 Bft) 97,23 %
02.07.2018 04:00 13,3 C 12,0 C 12,6 C 67 % 1013,7 hPa 0,0 l/m 0,00 h 0,00 h 0 W/m 1,7 km/h (1 Bft) 97,94 %
02.07.2018 05:00 12,6 C 11,6 C 12,2 C 70 % 1013,6 hPa 0,0 l/m 0,00 h 0,00 h 9 W/m 0,9 km/h (0 Bft) 99,24 %
02.07.2018 06:00 12,2 C 11,8 C 12,4 C 74 % 1013,9 hPa 0,0 l/m 0,00 h 0,00 h 21 W/m 0,0 km/h (0 Bft) 95,96 %
02.07.2018 07:00 13,0 C 14,1 C 13,8 C 75 % 1013,8 hPa 0,0 l/m 0,00 h 0,00 h 33 W/m 5,8 km/h (2 Bft) 96,95 %
02.07.2018 08:00 15,9 C 18,8 C 16,0 C 68 % 1013,9 hPa 0,0 l/m 0,80 h 0,00 h 309 W/m 6,7 km/h (2 Bft) 98,36 %
02.07.2018 09:00 18,9 C 20,6 C 17,9 C 59 % 1014,2 hPa 0,0 l/m 1,00 h 0,00 h 520 W/m 7,3 km/h (2 Bft) 95,93 %
02.07.2018 10:00 20,9 C 22,9 C 19,6 C 55 % 1014,1 hPa 0,0 l/m 1,00 h 0,00 h 664 W/m 8,0 km/h (2 Bft) 98,26 %
02.07.2018 11:00 24,2 C 33,0 C 21,4 C 49 % 1014,0 hPa 0,0 l/m 1,00 h 0,00 h 781 W/m 8,7 km/h (2 Bft) 97,44 %
02.07.2018 12:00 27,3 C 35,6 C 23,2 C 42 % 1013,7 hPa 0,0 l/m 1,00 h 0,00 h 864 W/m 10,4 km/h (2 Bft) 97,58 %
02.07.2018 13:00 27,6 C 32,7 C 24,4 C 39 % 1013,5 hPa 0,0 l/m 1,00 h 0,00 h 919 W/m 11,0 km/h (2 Bft) 98,86 %
02.07.2018 14:00 27,3 C 27,3 C 24,9 C 40 % 1013,3 hPa 0,0 l/m 1,00 h 0,00 h 922 W/m 10,7 km/h (2 Bft) 95,87 %
02.07.2018 15:00 28,0 C 29,0 C 25,4 C 38 % 1013,2 hPa 0,0 l/m 1,00 h 0,00 h 881 W/m 10,3 km/h (2 Bft) 98,22 %
02.07.2018 16:00 29,0 C 32,8 C 25,7 C 36 % 1012,9 hPa 0,0 l/m 1,00 h 0,00 h 796 W/m 9,9 km/h (2 Bft) 98,08 %
02.07.2018 17:00 29,3 C 30,5 C 26,4 C 36 % 1012,7 hPa 0,0 l/m 1,00 h 0,00 h 676 W/m 9,6 km/h (2 Bft) 97,37 %
02.07.2018 18:00 28,8 C 28,4 C 26,3 C 35 % 1012,6 hPa 0,0 l/m 1,00 h 0,00 h 526 W/m 9,0 km/h (2 Bft) 95,95 %
02.07.2018 19:00 27,6 C 26,8 C 24,8 C 36 % 1012,7 hPa 0,0 l/m 1,00 h 0,00 h 359 W/m 7,8 km/h (2 Bft) 97,16 %
02.07.2018 20:00 25,5 C 23,8 C 23,0 C 41 % 1012,7 hPa 0,0 l/m 0,00 h 0,00 h 34 W/m 5,6 km/h (1 Bft) 97,94 %
02.07.2018 21:00 23,5 C 21,7 C 21,5 C 45 % 1013,2 hPa 0,0 l/m 0,00 h 0,00 h 13 W/m 5,1 km/h (1 Bft) 98,86 %
02.07.2018 22:00 21,9 C 20,3 C 20,4 C 47 % 1013,8 hPa 0,0 l/m 0,00 h 0,00 h 0 W/m 6,0 km/h (2 Bft) 95,52 %
02.07.2018 23:00 20,8 C 19,5 C 19,6 C 45 % 1014,2 hPa 0,0 l/m 0,00 h 0,00 h 0 W/m 6,7 km/h (2 Bft) 97,93 %
03.07.2018 00:00 19,7 C 18,0 C 18,3 C 48 % 1014,4 hPa 0,0 l/m 0,00 h 0,00 h 0 W/m 4,1 km/h (1 Bft) 98,70 %
03.07.2018 01:00 18,3 C 16,7 C 17,1 C 51 % 1014,5 hPa 0,0 l/m 0,00 h 0,00 h 0 W/m 1,1 km/h (0 Bft) 97,78 %
03.07.2018 02:00 17,2 C 15,3 C 15,9 C 56 % 1014,6 hPa 0,0 l/m 0,00 h 0,00 h 0 W/m 0,0 km/h (0 Bft) 95,72 %
03.07.2018 03:00 15,8 C 14,3 C 14,5 C 60 % 1014,6 hPa 0,0 l/m 0,00 h 0,00 h 0 W/m 0,0 km/h (0 Bft) 97,12 %
03.07.2018 04:00 14,9 C 13,6 C 14,0 C 64 % 1014,4 hPa 0,0 l/m 0,00 h 0,00 h 0 W/m 0,0 km/h (0 Bft) 99,29 %
03.07.2018 05:00 14,2 C 13,1 C 13,9 C 69 % 1014,1 hPa 0,0 l/m 0,00 h 0,00 h 9 W/m 2,4 km/h (1 Bft) 96,63 %
03.07.2018 06:00 13,9 C 13,1 C 13,6 C 74 % 1014,6 hPa 0,0 l/m 0,00 h 0,00 h 22 W/m 0,5 km/h (0 Bft) 98,22 %
03.07.2018 07:00 14,1 C 14,8 C 14,9 C 76 % 1014,8 hPa 0,0 l/m 0,00 h 0,00 h 36 W/m 4,1 km/h (1 Bft) 97,36 %
03.07.2018 08:00 16,5 C 19,5 C 16,8 C 71 % 1015,0 hPa 0,0 l/m 0,77 h 0,00 h 301 W/m 4,3 km/h (1 Bft) 96,30 %
03.07.2018 09:00 20,2 C 22,3 C 19,2 C 56 % 1014,8 hPa 0,0 l/m 1,00 h 0,00 h 489 W/m 6,5 km/h (2 Bft) 99,43 %
03.07.2018 10:00 22,4 C 24,5 C 20,6 C 48 % 1014,6 hPa 0,0 l/m 1,00 h 0,00 h 436 W/m 7,2 km/h (2 Bft) 96,68 %
03.07.2018 11:00 25,6 C 33,9 C 22,3 C 41 % 1014,6 hPa 0,0 l/m 1,00 h 0,00 h 728 W/m 8,7 km/h (2 Bft) 96,65 %
03.07.2018 12:00 29,4 C 36,4 C 25,0 C 36 % 1014,4 hPa 0,0 l/m 1,00 h 0,00 h 862 W/m 9,2 km/h (2 Bft) 99,78 %
03.07.2018 13:00 30,1 C 35,2 C 26,5 C 35 % 1014,1 hPa 0,0 l/m 1,00 h 0,00 h 911 W/m 7,3 km/h (2 Bft) 96,85 %
03.07.2018 14:00 29,3 C 29,1 C 26,8 C 36 % 1013,6 hPa 0,0 l/m 1,00 h 0,00 h 912 W/m 7,6 km/h (2 Bft) 95,78 %
03.07.2018 15:00 29,8 C 30,8 C 27,3 C 35 % 1013,4 hPa 0,0 l/m 1,00 h 0,00 h 869 W/m 6,5 km/h (2 Bft) 99,37 %
03.07.2018 16:00 30,7 C 34,6 C 27,7 C 33 % 1013,0 hPa 0,0 l/m 1,00 h 0,00 h 777 W/m 7,3 km/h (2 Bft) 97,16 %
03.07.2018 17:00 31,1 C 32,4 C 27,8 C 34 % 1012,6 hPa 0,0 l/m 1,00 h 0,00 h 649 W/m 7,1 km/h (2 Bft) 97,91 %
03.07.2018 18:00 30,3 C 28,2 C 20,6 C 37 % 1012,2 hPa 0,0 l/m 1,00 h 0,00 h 498 W/m 6,9 km/h (2 Bft) 98,86 %
03.07.2018 19:00 28,7 C 25,5 C 18,1 C 38 % 1012,0 hPa 0,0 l/m 1,00 h 0,00 h 302 W/m 6,4 km/h (2 Bft) 97,45 %
03.07.2018 20:00 26,8 C 25,0 C 17,1 C 40 % 1011,9 hPa 0,0 l/m 0,00 h 0,00 h 49 W/m 3,8 km/h (1 Bft) 97,33 %
03.07.2018 21:00 24,9 C 22,3 C 15,5 C 49 % 1012,1 hPa 0,0 l/m 0,00 h 0,00 h 16 W/m 1,6 km/h (1 Bft) 98,29 %
03.07.2018 22:00 22,6 C 20,7 C 14,9 C 54 % 1012,4 hPa 0,0 l/m 0,00 h 0,00 h 2 W/m 0,3 km/h (0 Bft) 96,02 %
03.07.2018 23:00 21,0 C 19,5 C 16,7 C 56 % 1012,5 hPa 0,0 l/m 0,00 h 0,00 h 0 W/m 0,0 km/h (0 Bft) 97,36 %
04.07.2018 00:00 20,1 C 19,7 C 17,6 C 59 % 1012,7 hPa 0,0 l/m 0,00 h 0,00 h 0 W/m 2,2 km/h (1 Bft) 99,12 %
04.07.2018 01:00 20,3 C 19,9 C 18,6 C 63 % 1012,7 hPa 0,0 l/m 0,00 h 0,00 h 0 W/m 3,8 km/h (1 Bft) 96,23 %
04.07.2018 02:00 20,6 C 20,0 C 18,9 C 66 % 1012,7 hPa 0,0 l/m 0,00 h 0,00 h 0 W/m 2,0 km/h (1 Bft) 96,58 %
04.07.2018 03:00 20,5 C 19,5 C 18,7 C 69 % 1012,1 hPa 0,0 l/m 0,00 h 0,00 h 0 W/m 1,8 km/h (1 Bft) 99,00 %
04.07.2018 04:00 19,7 C 17,8 C 17,5 C 72 % 1011,9 hPa 0,0 l/m 0,00 h 0,00 h 0 W/m 0,1 km/h (0 Bft) 97,61 %
04.07.2018 05:00 18,5 C 16,9 C 16,7 C 76 % 1011,8 hPa 0,0 l/m 0,00 h 0,00 h 9 W/m 0,0 km/h (0 Bft) 96,53 %
04.07.2018 06:00 17,9 C 17,6 C 17,0 C 79 % 1011,9 hPa 0,0 l/m 0,00 h 0,00 h 34 W/m 0,0 km/h (0 Bft) 97,99 %
04.07.2018 07:00 18,2 C 19,1 C 17,8 C 81 % 1011,7 hPa 0,0 l/m 0,00 h 0,00 h 87 W/m 0,0 km/h (0 Bft) 96,93 %
04.07.2018 08:00 19,7 C 22,1 C 19,2 C 77 % 1011,7 hPa 0,0 l/m 0,77 h 0,00 h 252 W/m 3,1 km/h (1 Bft) 98,93 %
04.07.2018 09:00 22,4 C 24,5 C 21,1 C 65 % 1011,6 hPa 0,0 l/m 1,00 h 0,00 h 439 W/m 4,6 km/h (1 Bft) 96,69 %
04.07.2018 10:00 24,5 C 26,0 C 22,8 C 59 % 1011,5 hPa 0,0 l/m 0,33 h 0,00 h 285 W/m 3,9 km/h (1 Bft) 98,15 %
04.07.2018 11:00 25,5 C 27,1 C 23,6 C 59 % 1011,8 hPa 0,0 l/m 0,13 h 0,00 h 324 W/m 4,5 km/h (1 Bft) 98,01 %
04.07.2018 12:00 27,2 C 29,3 C 24,6 C 58 % 1011,7 hPa 0,0 l/m 0,43 h 0,10 h 411 W/m 5,6 km/h (1 Bft) 96,52 %
04.07.2018 13:00 26,8 C 27,5 C 24,7 C 63 % 1011,3 hPa 0,0 l/m 0,27 h 0,03 h 488 W/m 3,4 km/h (1 Bft) 98,86 %
04.07.2018 14:00 27,7 C 26,0 C 23,1 C 62 % 1011,2 hPa 0,0 l/m 0,50 h 0,00 h 513 W/m 5,6 km/h (1 Bft) 96,45 %
04.07.2018 15:00 26,8 C 23,4 C 20,3 C 67 % 1011,2 hPa 0,0 l/m 0,07 h 0,00 h 355 W/m 8,4 km/h (2 Bft) 97,66 %
04.07.2018 16:00 27,5 C 28,4 C 24,6 C 65 % 1011,1 hPa 0,0 l/m 0,93 h 0,00 h 396 W/m 7,1 km/h (2 Bft) 99,00 %
04.07.2018 17:00 28,1 C 28,3 C 26,1 C 61 % 1010,5 hPa 0,0 l/m 0,77 h 0,00 h 305 W/m 6,9 km/h (2 Bft) 96,36 %
04.07.2018 18:00 27,8 C 24,5 C 21,0 C 65 % 1010,3 hPa 0,0 l/m 0,83 h 0,00 h 258 W/m 7,4 km/h (2 Bft) 97,89 %
04.07.2018 19:00 27,0 C 25,0 C 19,6 C 62 % 1009,9 hPa 0,0 l/m 0,83 h 0,00 h 231 W/m 6,8 km/h (2 Bft) 97,44 %
04.07.2018 20:00 26,7 C 24,8 C 19,5 C 64 % 1009,9 hPa 0,0 l/m 0,57 h 0,00 h 85 W/m 2,7 km/h (1 Bft) 98,51 %
04.07.2018 21:00 25,7 C 24,3 C 19,9 C 69 % 1010,1 hPa 0,0 l/m 0,23 h 0,00 h 22 W/m 4,6 km/h (1 Bft) 97,14 %
04.07.2018 22:00 24,6 C 21,5 C 19,5 C 76 % 1010,1 hPa 0,2 l/m 0,00 h 0,00 h 6 W/m 5,1 km/h (1 Bft) 96,69 %
04.07.2018 23:00 22,8 C 19,2 C 18,8 C 84 % 1010,4 hPa 0,2 l/m 0,00 h 0,00 h 0 W/m 2,0 km/h (1 Bft) 98,44 %
05.07.2018 00:00 21,1 C 17,9 C 18,1 C 81 % 1010,8 hPa 0,0 l/m 0,00 h 0,00 h 0 W/m 1,8 km/h (1 Bft) 94,39 %
05.07.2018 01:00 19,8 C 16,8 C 18,1 C 78 % 1010,6 hPa 0,0 l/m 0,00 h 0,00 h 0 W/m 0,7 km/h (0 Bft) 96,10 %
05.07.2018 02:00 18,9 C 17,3 C 17,3 C 77 % 1010,3 hPa 0,0 l/m 0,00 h 0,00 h 0 W/m 0,0 km/h (0 Bft) 97,02 %
05.07.2018 03:00 18,7 C 18,1 C 17,9 C 78 % 1010,5 hPa 0,0 l/m 0,00 h 0,00 h 0 W/m 1,9 km/h (1 Bft) 99,22 %
05.07.2018 04:00 18,7 C 17,6 C 17,4 C 79 % 1010,4 hPa 0,0 l/m 0,00 h 0,00 h 0 W/m 2,4 km/h (1 Bft) 97,15 %
05.07.2018 05:00 18,2 C 17,0 C 17,0 C 80 % 1010,3 hPa 0,0 l/m 0,00 h 0,00 h 8 W/m 1,0 km/h (0 Bft) 96,91 %
05.07.2018 06:00 17,8 C 17,2 C 17,0 C 83 % 1010,5 hPa 0,0 l/m 0,00 h 0,00 h 33 W/m 1,4 km/h (1 Bft) 98,08 %
05.07.2018 07:00 18,2 C 17,8 C 17,2 C 84 % 1010,7 hPa 0,0 l/m 0,00 h 0,17 h 36 W/m 3,5 km/h (1 Bft) 96,37 %
05.07.2018 08:00 18,5 C 19,0 C 17,7 C 85 % 1011,0 hPa 0,0 l/m 0,30 h 0,03 h 158 W/m 5,8 km/h (2 Bft) 98,59 %
05.07.2018 09:00 19,9 C 21,8 C 19,1 C 83 % 1011,3 hPa 0,0 l/m 0,57 h 0,00 h 363 W/m 8,0 km/h (2 Bft) 96,64 %
05.07.2018 10:00 22,1 C 24,8 C 21,0 C 75 % 1011,3 hPa 0,0 l/m 1,00 h 0,00 h 565 W/m 8,7 km/h (2 Bft) 97,71 %
05.07.2018 11:00 24,3 C 29,0 C 22,4 C 64 % 1011,3 hPa 0,0 l/m 1,00 h 0,00 h 591 W/m 9,5 km/h (2 Bft) 98,36 %
05.07.2018 12:00 26,1 C 31,0 C 23,5 C 60 % 1011,1 hPa 0,0 l/m 0,83 h 0,00 h 613 W/m 10,1 km/h (2 Bft) 96,69 %
05.07.2018 13:00 26,3 C 28,4 C 24,2 C 58 % 1011,1 hPa 0,0 l/m 0,83 h 0,00 h 513 W/m 9,0 km/h (2 Bft) 98,22 %
05.07.2018 14:00 26,8 C 28,2 C 25,1 C 56 % 1011,0 hPa 0,0 l/m 0,93 h 0,00 h 562 W/m 10,6 km/h (2 Bft) 96,98 %
05.07.2018 15:00 26,9 C 28,4 C 25,1 C 55 % 1011,1 hPa 0,0 l/m 0,93 h 0,00 h 616 W/m 13,0 km/h (3 Bft) 97,25 %
05.07.2018 16:00 27,6 C 29,8 C 25,6 C 54 % 1011,3 hPa 0,0 l/m 0,97 h 0,00 h 609 W/m 13,7 km/h (3 Bft) 98,33 %
05.07.2018 17:00 27,4 C 28,5 C 25,7 C 53 % 1011,4 hPa 0,0 l/m 0,90 h 0,00 h 635 W/m 16,4 km/h (3 Bft) 96,39 %
05.07.2018 18:00 27,4 C 27,7 C 25,6 C 48 % 1011,2 hPa 0,0 l/m 1,00 h 0,00 h 515 W/m 13,6 km/h (3 Bft) 99,37 %
05.07.2018 19:00 26,8 C 26,4 C 24,6 C 50 % 1011,2 hPa 0,0 l/m 1,00 h 0,00 h 308 W/m 12,3 km/h (3 Bft) 97,28 %
05.07.2018 20:00 25,5 C 24,5 C 23,5 C 56 % 1011,5 hPa 0,0 l/m 0,00 h 0,00 h 72 W/m 11,0 km/h (2 Bft) 96,38 %
05.07.2018 21:00 23,9 C 20,9 C 19,7 C 60 % 1012,1 hPa 0,0 l/m 0,10 h 0,00 h 20 W/m 11,0 km/h (2 Bft) 99,65 %
05.07.2018 22:00 21,5 C 16,6 C 16,7 C 68 % 1013,1 hPa 0,0 l/m 0,00 h 0,00 h 0 W/m 11,3 km/h (2 Bft) 96,49 %
05.07.2018 23:00 20,0 C 17,0 C 18,4 C 74 % 1013,8 hPa 0,0 l/m 0,00 h 0,00 h 0 W/m 5,3 km/h (1 Bft) 96,26 %
06.07.2018 00:00 18,8 C 17,0 C 17,4 C 79 % 1014,5 hPa 0,0 l/m 0,00 h 0,00 h 0 W/m 4,4 km/h (1 Bft) 99,64 %
06.07.2018 01:00 17,8 C 16,5 C 16,7 C 83 % 1014,8 hPa 0,0 l/m 0,00 h 0,00 h 0 W/m 5,2 km/h (1 Bft) 97,20 %
06.07.2018 02:00 17,0 C 15,7 C 16,0 C 85 % 1014,9 hPa 0,0 l/m 0,00 h 0,00 h 0 W/m 4,7 km/h (1 Bft) 96,53 %
06.07.2018 03:00 16,4 C 15,2 C 15,3 C 87 % 1015,3 hPa 0,0 l/m 0,00 h 0,00 h 0 W/m 3,8 km/h (1 Bft) 97,87 %
06.07.2018 04:00 15,8 C 14,7 C 15,0 C 89 % 1015,5 hPa 0,0 l/m 0,00 h 0,00 h 0 W/m 4,1 km/h (1 Bft) 97,13 %
06.07.2018 05:00 15,3 C 14,1 C 14,4 C 90 % 1015,7 hPa 0,0 l/m 0,00 h 0,00 h 10 W/m 1,3 km/h (1 Bft) 97,99 %
06.07.2018 06:00 15,0 C 14,6 C 14,6 C 92 % 1016,5 hPa 0,0 l/m 0,00 h 0,00 h 39 W/m 3,8 km/h (1 Bft) 98,36 %
06.07.2018 07:00 15,6 C 15,8 C 15,2 C 93 % 1016,9 hPa 0,0 l/m 0,00 h 0,00 h 63 W/m 7,1 km/h (2 Bft) 96,58 %
06.07.2018 08:00 16,4 C 17,3 C 16,1 C 91 % 1017,3 hPa 0,0 l/m 0,00 h 0,00 h 128 W/m 5,6 km/h (1 Bft) 98,08 %
06.07.2018 09:00 17,5 C 18,6 C 16,9 C 87 % 1017,9 hPa 0,0 l/m 0,07 h 0,00 h 206 W/m 6,9 km/h (2 Bft) 97,90 %
06.07.2018 10:00 18,5 C 19,8 C 17,6 C 83 % 1018,1 hPa 0,0 l/m 0,13 h 0,00 h 266 W/m 10,2 km/h (2 Bft) 95,68 %
06.07.2018 11:00 20,6 C 26,7 C 19,3 C 76 % 1018,3 hPa 0,0 l/m 0,77 h 0,00 h 617 W/m 7,7 km/h (2 Bft) 99,18 %
06.07.2018 12:00 23,7 C 31,7 C 21,1 C 67 % 1018,3 hPa 0,0 l/m 1,00 h 0,00 h 839 W/m 9,6 km/h (2 Bft) 98,27 %
06.07.2018 13:00 25,2 C 29,7 C 22,9 C 61 % 1018,3 hPa 0,0 l/m 1,00 h 0,00 h 880 W/m 11,5 km/h (2 Bft) 94,74 %
06.07.2018 14:00 25,4 C 26,3 C 23,5 C 60 % 1018,2 hPa 0,2 l/m 0,83 h 0,00 h 800 W/m 12,3 km/h (3 Bft) 99,35 %
06.07.2018 15:00 26,0 C 27,2 C 24,1 C 58 % 1018,0 hPa 0,0 l/m 0,77 h 0,00 h 717 W/m 12,4 km/h (3 Bft) 98,22 %
06.07.2018 16:00 26,6 C 29,0 C 24,6 C 57 % 1018,1 hPa 0,0 l/m 0,77 h 0,00 h 637 W/m 14,1 km/h (3 Bft) 96,09 %
06.07.2018 17:00 26,2 C 26,1 C 24,0 C 56 % 1018,2 hPa 0,0 l/m 0,22 h 0,00 h 263 W/m 13,7 km/h (3 Bft) 98,29 %
06.07.2018 18:00 25,8 C 26,0 C 24,1 C 55 % 1018,3 hPa 0,0 l/m 0,83 h 0,00 h 308 W/m 12,8 km/h (3 Bft) 98,18 %
06.07.2018 19:00 25,6 C 25,5 C 23,7 C 55 % 1018,3 hPa 0,0 l/m 0,93 h 0,00 h 266 W/m 11,1 km/h (2 Bft) 97,16 %
06.07.2018 20:00 24,6 C 23,9 C 22,9 C 55 % 1018,2 hPa 0,0 l/m 0,17 h 0,00 h 67 W/m 9,2 km/h (2 Bft) 96,16 %
06.07.2018 21:00 23,8 C 20,0 C 19,0 C 59 % 1018,5 hPa 0,0 l/m 0,50 h 0,00 h 26 W/m 5,1 km/h (1 Bft) 98,86 %
06.07.2018 22:00 21,7 C 16,3 C 15,3 C 68 % 1019,2 hPa 0,0 l/m 0,00 h 0,00 h 0 W/m 3,0 km/h (1 Bft) 98,07 %
06.07.2018 23:00 19,8 C 16,2 C 15,5 C 71 % 1019,4 hPa 0,0 l/m 0,00 h 0,00 h 0 W/m 2,6 km/h (1 Bft) 96,46 %
07.07.2018 00:00 19,3 C 17,8 C 17,3 C 70 % 1019,7 hPa 0,0 l/m 0,00 h 0,00 h 0 W/m 3,6 km/h (1 Bft) 97,05 %
07.07.2018 01:00 19,0 C 17,8 C 16,9 C 69 % 1019,8 hPa 0,0 l/m 0,00 h 0,00 h 0 W/m 1,2 km/h (1 Bft) 98,65 %
07.07.2018 02:00 18,1 C 16,8 C 16,3 C 69 % 1019,9 hPa 0,0 l/m 0,00 h 0,00 h 0 W/m 2,0 km/h (1 Bft) 98,09 %
07.07.2018 03:00 17,3 C 16,0 C 15,8 C 71 % 1020,0 hPa 0,0 l/m 0,00 h 0,00 h 0 W/m 0,9 km/h (0 Bft) 95,09 %
07.07.2018 04:00 16,7 C 15,9 C 15,8 C 71 % 1020,0 hPa 0,0 l/m 0,00 h 0,00 h 0 W/m 0,2 km/h (0 Bft) 98,94 %
07.07.2018 05:00 16,4 C 16,1 C 15,5 C 69 % 1020,1 hPa 0,0 l/m 0,00 h 0,00 h 8 W/m 0,0 km/h (0 Bft) 97,32 %
07.07.2018 06:00 16,2 C 15,7 C 14,8 C 72 % 1020,4 hPa 0,0 l/m 0,00 h 0,00 h 36 W/m 0,0 km/h (0 Bft) 98,14 %
07.07.2018 07:00 16,1 C 16,8 C 16,0 C 71 % 1021,0 hPa 0,0 l/m 0,00 h 0,00 h 78 W/m 4,3 km/h (1 Bft) 97,77 %
07.07.2018 08:00 17,7 C 19,5 C 17,4 C 65 % 1021,2 hPa 0,0 l/m 0,73 h 0,00 h 266 W/m 5,3 km/h (1 Bft) 95,52 %
07.07.2018 09:00 20,0 C 21,2 C 19,0 C 56 % 1021,4 hPa 0,0 l/m 1,00 h 0,00 h 477 W/m 6,4 km/h (2 Bft) 99,36 %
07.07.2018 10:00 21,6 C 23,1 C 20,2 C 52 % 1021,3 hPa 0,0 l/m 1,00 h 0,00 h 629 W/m 8,5 km/h (2 Bft) 97,22 %
07.07.2018 11:00 23,9 C 31,7 C 21,2 C 50 % 1021,4 hPa 0,0 l/m 1,00 h 0,00 h 750 W/m 10,4 km/h (2 Bft) 96,81 %
07.07.2018 12:00 26,0 C 33,3 C 22,5 C 45 % 1021,4 hPa 0,0 l/m 1,00 h 0,00 h 840 W/m 11,8 km/h (2 Bft) 98,57 %
07.07.2018 13:00 26,1 C 31,1 C 23,6 C 46 % 1021,2 hPa 0,0 l/m 1,00 h 0,00 h 887 W/m 12,6 km/h (3 Bft) 96,79 %
07.07.2018 14:00 26,0 C 26,2 C 24,1 C 47 % 1021,0 hPa 0,0 l/m 1,00 h 0,00 h 884 W/m 16,5 km/h (3 Bft) 96,85 %
07.07.2018 15:00 26,6 C 27,6 C 24,3 C 47 % 1020,8 hPa 0,0 l/m 1,00 h 0,00 h 809 W/m 15,7 km/h (3 Bft) 97,52 %
07.07.2018 16:00 27,0 C 30,0 C 24,7 C 46 % 1020,8 hPa 0,0 l/m 1,00 h 0,00 h 747 W/m 15,0 km/h (3 Bft) 98,30 %
07.07.2018 17:00 27,0 C 27,6 C 25,0 C 47 % 1020,5 hPa 0,0 l/m 0,90 h 0,00 h 546 W/m 14,3 km/h (3 Bft) 96,94 %
07.07.2018 18:00 26,9 C 26,9 C 25,2 C 47 % 1020,3 hPa 0,0 l/m 1,00 h 0,00 h 501 W/m 15,0 km/h (3 Bft) 96,25 %
07.07.2018 19:00 25,7 C 25,1 C 23,7 C 48 % 1020,2 hPa 0,0 l/m 0,97 h 0,00 h 266 W/m 14,6 km/h (3 Bft) 99,07 %
07.07.2018 20:00 24,0 C 22,8 C 22,2 C 50 % 1020,5 hPa 0,0 l/m 0,00 h 0,00 h 51 W/m 13,2 km/h (3 Bft) 98,79 %
07.07.2018 21:00 22,3 C 20,8 C 20,7 C 53 % 1020,6 hPa 0,0 l/m 0,00 h 0,00 h 16 W/m 7,8 km/h (2 Bft) 94,67 %
07.07.2018 22:00 20,6 C 18,8 C 19,0 C 58 % 1020,9 hPa 0,0 l/m 0,00 h 0,00 h 1 W/m 5,1 km/h (1 Bft) 99,15 %
07.07.2018 23:00 19,0 C 17,5 C 17,8 C 62 % 1021,0 hPa 0,0 l/m 0,00 h 0,00 h 0 W/m 4,2 km/h (1 Bft) 99,36 %
08.07.2018 00:00 17,9 C 16,5 C 16,9 C 66 % 1021,2 hPa 0,0 l/m 0,00 h 0,00 h 0 W/m 5,1 km/h (1 Bft) 94,95 %
08.07.2018 01:00 17,0 C 15,5 C 16,1 C 71 % 1021,2 hPa 0,0 l/m 0,00 h 0,00 h 0 W/m 2,3 km/h (1 Bft) 97,65 %
08.07.2018 02:00 16,2 C 14,7 C 15,2 C 74 % 1021,2 hPa 0,0 l/m 0,00 h 0,00 h 0 W/m 0,5 km/h (0 Bft) 98,36 %
08.07.2018 03:00 15,0 C 13,1 C 14,0 C 79 % 1021,5 hPa 0,0 l/m 0,00 h 0,00 h 0 W/m 0,0 km/h (0 Bft) 97,80 %
08.07.2018 04:00 13,9 C 12,7 C 13,3 C 82 % 1021,8 hPa 0,0 l/m 0,00 h 0,00 h 0 W/m 0,0 km/h (0 Bft) 97,82 %
08.07.2018 05:00 13,4 C 12,2 C 12,9 C 85 % 1021,9 hPa 0,0 l/m 0,00 h 0,00 h 9 W/m 0,0 km/h (0 Bft) 97,13 %
08.07.2018 06:00 13,1 C 12,6 C 13,1 C 87 % 1022,3 hPa 0,0 l/m 0,00 h 0,00 h 24 W/m 0,0 km/h (0 Bft) 97,37 %
08.07.2018 07:00 13,5 C 13,9 C 13,9 C 89 % 1022,7 hPa 0,0 l/m 0,00 h 0,00 h 39 W/m 3,8 km/h (1 Bft) 96,01 %
08.07.2018 08:00 14,9 C 16,4 C 14,9 C 86 % 1022,7 hPa 0,0 l/m 0,73 h 0,00 h 266 W/m 6,5 km/h (2 Bft) 99,57 %
08.07.2018 09:00 16,9 C 17,9 C 16,5 C 74 % 1022,8 hPa 0,0 l/m 1,00 h 0,00 h 487 W/m 9,0 km/h (2 Bft) 96,82 %
08.07.2018 10:00 18,6 C 20,0 C 17,9 C 66 % 1022,8 hPa 0,0 l/m 1,00 h 0,00 h 631 W/m 9,7 km/h (2 Bft) 95,64 %
08.07.2018 11:00 21,4 C 28,1 C 19,5 C 62 % 1022,7 hPa 0,0 l/m 1,00 h 0,00 h 747 W/m 13,1 km/h (3 Bft) 99,51 %
08.07.2018 12:00 24,3 C 31,9 C 21,4 C 56 % 1022,6 hPa 0,0 l/m 1,00 h 0,00 h 866 W/m 12,3 km/h (3 Bft) 97,13 %
08.07.2018 13:00 24,8 C 28,9 C 22,4 C 55 % 1022,2 hPa 0,0 l/m 0,80 h 0,00 h 837 W/m 13,2 km/h (3 Bft) 96,79 %
08.07.2018 14:00 24,5 C 25,0 C 22,7 C 55 % 1021,9 hPa 0,0 l/m 0,90 h 0,00 h 867 W/m 13,7 km/h (3 Bft) 98,15 %
08.07.2018 15:00 25,4 C 26,8 C 23,4 C 53 % 1021,5 hPa 0,0 l/m 1,00 h 0,00 h 878 W/m 13,9 km/h (3 Bft) 97,96 %
08.07.2018 16:00 26,5 C 30,2 C 24,2 C 50 % 1021,2 hPa 0,0 l/m 1,00 h 0,00 h 768 W/m 13,0 km/h (3 Bft) 96,65 %
08.07.2018 17:00 27,0 C 27,8 C 24,9 C 48 % 1020,8 hPa 0,0 l/m 1,00 h 0,00 h 646 W/m 13,7 km/h (3 Bft) 97,30 %
08.07.2018 18:00 26,7 C 26,7 C 25,0 C 48 % 1020,6 hPa 0,0 l/m 1,00 h 0,00 h 498 W/m 12,3 km/h (3 Bft) 99,01 %
08.07.2018 19:00 26,0 C 25,5 C 24,0 C 49 % 1020,4 hPa 0,0 l/m 0,93 h 0,00 h 317 W/m 12,3 km/h (3 Bft) 98,72 %
08.07.2018 20:00 24,5 C 23,5 C 22,8 C 52 % 1020,3 hPa 0,0 l/m 0,00 h 0,00 h 39 W/m 11,3 km/h (2 Bft) 94,40 %
08.07.2018 21:00 23,2 C 21,8 C 21,6 C 56 % 1020,6 hPa 0,0 l/m 0,00 h 0,00 h 14 W/m 7,4 km/h (2 Bft) 99,34 %
08.07.2018 22:00 21,6 C 19,9 C 20,0 C 62 % 1021,0 hPa 0,0 l/m 0,00 h 0,00 h 0 W/m 9,0 km/h (2 Bft) 98,88 %
08.07.2018 23:00 20,2 C 18,9 C 18,9 C 68 % 1021,2 hPa 0,0 l/m 0,00 h 0,00 h 0 W/m 10,0 km/h (2 Bft) 94,31 %
Min-Datum _ 02.07.18 02.07.18 02.07.18 03.07.18 04.07.18 - - - - 02.07.18 05.07.18
_ Min-Zeit 06:18 05:46 00:00 16:12 19:40 - - - - 00:00 00:02
Minimum _ 12,2 C 11,1 C 12,2 C 31 % 1009,7 hPa - - - - 0,0 km/h (0 Bft) 20,00 %
Max-Datum _ 03.07.18 03.07.18 03.07.18 06.07.18 08.07.18 04.07.18 06.07.18 04.07.18 08.07.18 05.07.18 02.07.18
_ Max-Zeit 17:20 13:02 17:02 06:42 07:42 22:40 17:16 12:54 14:02 18:44 00:50
Maximum _ 31,2 C 39,4 C 28,3 C 93 % 1022,9 hPa 0,2 l/m 0,08 h 0,03 h 1115 W/m 27,0 km/h
NW (4 Bft)
100,00 %
Durchschnitt _ 21,8 C 22,1 C 19,7 C 62 % 1015,6 hPa #0,6 l/m #72:33 h #20 min. 400 W/m 6,5 km/h (2 Bft) 97,50 %
© 2018 W. Hausmann